createdAt,value
2022-12-04T00:01:12.802Z,4.40
2022-12-04T00:03:39.708Z,4.20
2022-12-04T00:06:11.989Z,4.30
2022-12-04T00:08:39.250Z,4.30
2022-12-04T00:11:08.599Z,4.30
2022-12-04T00:13:35.777Z,4.50
2022-12-04T00:16:09.412Z,4.60
2022-12-04T00:18:36.429Z,4.50
2022-12-04T00:21:05.434Z,4.40
2022-12-04T00:23:32.765Z,4.50
2022-12-04T00:26:03.760Z,4.50
2022-12-04T00:28:30.360Z,4.50
2022-12-04T00:30:57.009Z,4.50
2022-12-04T00:33:23.933Z,4.50
2022-12-04T00:35:58.588Z,4.40
2022-12-04T00:38:25.290Z,4.30
2022-12-04T00:40:52.477Z,4.50
2022-12-04T00:43:19.864Z,4.40
2022-12-04T00:45:46.465Z,4.40
2022-12-04T00:48:13.166Z,4.20
2022-12-04T00:50:40.000Z,4.20
2022-12-04T00:53:06.615Z,4.40
2022-12-04T00:55:33.702Z,4.50
2022-12-04T00:58:00.396Z,4.50
2022-12-04T01:00:27.021Z,4.40
2022-12-04T01:02:53.997Z,4.30
2022-12-04T01:05:20.735Z,4.00
2022-12-04T01:07:47.373Z,4.20
2022-12-04T01:10:15.636Z,4.20
2022-12-04T01:12:42.264Z,4.20
2022-12-04T01:15:09.377Z,4.30
2022-12-04T01:17:36.104Z,4.40
2022-12-04T01:20:03.577Z,4.40
2022-12-04T01:22:30.159Z,4.40
2022-12-04T01:24:57.091Z,4.30
2022-12-04T01:27:24.268Z,4.20
2022-12-04T01:29:50.959Z,4.10
2022-12-04T01:32:17.573Z,4.30
2022-12-04T01:34:44.296Z,4.40
2022-12-04T01:37:10.894Z,4.20
2022-12-04T01:39:37.820Z,4.20
2022-12-04T01:42:05.152Z,4.10
2022-12-04T01:44:32.326Z,4.20
2022-12-04T01:47:00.609Z,4.20
2022-12-04T01:49:36.173Z,4.20
2022-12-04T01:52:08.921Z,4.10
2022-12-04T01:54:40.745Z,4.10
2022-12-04T01:57:14.515Z,3.70
2022-12-04T01:59:45.638Z,3.90
2022-12-04T02:02:18.896Z,3.80
2022-12-04T02:04:46.669Z,3.90
2022-12-04T02:07:13.284Z,3.70
2022-12-04T02:09:40.986Z,4.00
2022-12-04T02:12:21.921Z,3.70
2022-12-04T02:15:11.691Z,3.60
2022-12-04T02:17:59.315Z,3.50
2022-12-04T02:20:59.810Z,3.50
2022-12-04T02:23:32.191Z,3.50
2022-12-04T02:26:23.651Z,3.60
2022-12-04T02:28:53.467Z,3.50
2022-12-04T02:31:25.847Z,3.50
2022-12-04T02:33:59.858Z,4.00
2022-12-04T02:36:34.328Z,3.80
2022-12-04T02:39:18.130Z,4.10
2022-12-04T02:42:13.240Z,3.90
2022-12-04T02:45:08.217Z,4.30
2022-12-04T02:47:38.143Z,4.00
2022-12-04T02:50:10.044Z,4.20
2022-12-04T02:52:51.382Z,3.60
2022-12-04T02:55:31.151Z,4.00
2022-12-04T02:58:02.721Z,4.00
2022-12-04T03:00:31.863Z,3.80
2022-12-04T03:03:06.356Z,4.10
2022-12-04T03:05:46.349Z,4.00
2022-12-04T03:08:18.812Z,4.10
2022-12-04T03:10:55.318Z,4.10
2022-12-04T03:13:50.595Z,4.10
2022-12-04T03:16:27.341Z,4.20
2022-12-04T03:19:12.195Z,4.20
2022-12-04T03:21:46.660Z,4.20
2022-12-04T03:24:27.168Z,4.40
2022-12-04T03:27:15.079Z,4.50
2022-12-04T03:29:46.814Z,4.50
2022-12-04T03:32:35.096Z,4.50
2022-12-04T03:35:01.608Z,4.50
2022-12-04T03:37:49.552Z,4.50
2022-12-04T03:40:30.521Z,4.50
2022-12-04T03:43:13.332Z,4.30
2022-12-04T03:45:58.295Z,4.00
2022-12-04T03:48:43.061Z,4.00
2022-12-04T03:51:33.125Z,4.00
2022-12-04T03:54:09.679Z,3.90
2022-12-04T03:56:44.868Z,4.00
2022-12-04T03:59:18.122Z,4.10
2022-12-04T04:01:48.654Z,4.10
2022-12-04T04:04:24.556Z,4.50
2022-12-04T04:06:56.548Z,4.30
2022-12-04T04:09:28.789Z,4.30
2022-12-04T04:12:05.009Z,4.30
2022-12-04T04:15:21.774Z,4.20
2022-12-04T04:18:09.560Z,4.20
2022-12-04T04:21:05.629Z,4.20
2022-12-04T04:24:00.166Z,4.20
2022-12-04T04:26:31.171Z,4.20
2022-12-04T04:28:57.767Z,4.30
2022-12-04T04:31:36.753Z,4.30
2022-12-04T04:34:22.314Z,4.10
2022-12-04T04:37:01.313Z,4.00
2022-12-04T04:39:42.360Z,3.90
2022-12-04T04:42:23.996Z,3.90
2022-12-04T04:45:28.874Z,4.00
2022-12-04T04:48:18.323Z,4.00
2022-12-04T04:50:46.016Z,3.90
2022-12-04T04:53:18.190Z,4.00
2022-12-04T04:55:45.626Z,4.00
2022-12-04T04:58:18.310Z,4.20
2022-12-04T05:00:59.618Z,4.30
2022-12-04T05:03:27.583Z,4.30
2022-12-04T05:05:54.552Z,4.20
2022-12-04T05:08:21.957Z,4.10
2022-12-04T05:10:48.903Z,4.30
2022-12-04T05:13:16.696Z,4.50
2022-12-04T05:15:43.352Z,4.20
2022-12-04T05:18:10.334Z,4.20
2022-12-04T05:20:40.828Z,4.10
2022-12-04T05:23:07.450Z,4.10
2022-12-04T05:25:34.044Z,4.10
2022-12-04T05:28:00.641Z,3.90
2022-12-04T05:30:27.216Z,4.00
2022-12-04T05:32:53.840Z,4.00
2022-12-04T05:35:20.394Z,4.00
2022-12-04T05:37:47.338Z,4.30
2022-12-04T05:40:14.139Z,4.20
2022-12-04T05:42:40.727Z,4.20
2022-12-04T05:45:07.959Z,4.10
2022-12-04T05:47:41.891Z,4.30
2022-12-04T05:50:10.348Z,4.20
2022-12-04T05:52:37.075Z,4.40
2022-12-04T05:55:03.902Z,4.80
2022-12-04T05:57:30.538Z,4.70
2022-12-04T05:59:57.471Z,4.70
2022-12-04T06:02:24.262Z,5.10
2022-12-04T06:04:50.990Z,4.90
2022-12-04T06:07:17.588Z,4.90
2022-12-04T06:09:44.215Z,4.90
2022-12-04T06:12:10.784Z,4.90
2022-12-04T06:14:39.777Z,5.10
2022-12-04T06:17:06.990Z,5.10
2022-12-04T06:19:33.545Z,5.10
2022-12-04T06:22:00.102Z,5.20
2022-12-04T06:24:26.965Z,5.10
2022-12-04T06:29:47.136Z,4.90
2022-12-04T06:32:17.901Z,4.80
2022-12-04T06:34:46.179Z,5.00
2022-12-04T06:37:12.725Z,4.90
2022-12-04T06:39:39.272Z,4.80
2022-12-04T06:42:05.948Z,4.90
2022-12-04T06:44:32.597Z,4.80
2022-12-04T06:47:00.985Z,4.80
2022-12-04T06:49:27.941Z,4.90
2022-12-04T06:51:54.641Z,5.00
2022-12-04T06:54:21.186Z,5.00
2022-12-04T06:56:48.919Z,5.00
2022-12-04T06:59:15.638Z,4.70
2022-12-04T07:01:42.289Z,5.00
2022-12-04T07:04:09.096Z,4.80
2022-12-04T07:06:38.428Z,4.70
2022-12-04T07:09:11.301Z,4.70
2022-12-04T07:11:39.417Z,4.40
2022-12-04T07:14:06.109Z,4.50
2022-12-04T07:16:39.898Z,4.40
2022-12-04T07:19:08.612Z,4.70
2022-12-04T07:21:35.232Z,4.80
2022-12-04T07:24:02.273Z,4.80
2022-12-04T07:26:30.560Z,4.60
2022-12-04T07:28:58.909Z,4.60
2022-12-04T07:31:27.293Z,4.30
2022-12-04T07:33:54.581Z,4.20
2022-12-04T07:36:22.560Z,4.40
2022-12-04T07:38:50.340Z,4.70
2022-12-04T07:41:18.152Z,5.10
2022-12-04T07:43:44.870Z,5.00
2022-12-04T07:46:14.907Z,4.90
2022-12-04T07:48:41.745Z,4.80
2022-12-04T07:51:11.197Z,4.80
2022-12-04T07:53:38.609Z,5.00
2022-12-04T07:56:06.105Z,4.80
2022-12-04T07:58:33.526Z,4.70
2022-12-04T08:01:12.295Z,4.70
2022-12-04T08:03:46.849Z,4.80
2022-12-04T08:06:14.674Z,5.10
2022-12-04T08:08:41.243Z,5.20
2022-12-04T08:11:10.491Z,5.20
2022-12-04T08:13:37.210Z,4.90
2022-12-04T08:16:05.213Z,5.00
2022-12-04T08:18:32.265Z,5.00
2022-12-04T08:21:14.679Z,5.00
2022-12-04T08:23:43.108Z,4.70
2022-12-04T08:26:10.751Z,4.50
2022-12-04T08:28:37.904Z,4.70
2022-12-04T08:31:06.711Z,5.00
2022-12-04T08:33:34.334Z,4.70
2022-12-04T08:36:01.006Z,4.60
2022-12-04T08:38:27.811Z,5.10
2022-12-04T08:40:54.383Z,5.40
2022-12-04T08:43:20.976Z,5.10
2022-12-04T08:45:59.068Z,5.20
2022-12-04T08:48:25.821Z,5.00
2022-12-04T08:50:52.487Z,4.70
2022-12-04T08:53:19.889Z,5.10
2022-12-04T08:55:46.585Z,5.40
2022-12-04T08:58:13.270Z,5.10
2022-12-04T09:00:40.177Z,4.90
2022-12-04T09:03:06.896Z,4.80
2022-12-04T09:05:33.477Z,5.10
2022-12-04T09:08:00.087Z,5.20
2022-12-04T09:10:26.873Z,5.10
2022-12-04T09:12:53.690Z,5.00
2022-12-04T09:15:20.252Z,5.10
2022-12-04T09:17:47.007Z,5.20
2022-12-04T09:20:14.902Z,5.10
2022-12-04T09:23:02.941Z,5.00
2022-12-04T09:25:28.370Z,4.70
2022-12-04T09:27:54.936Z,4.90
2022-12-04T09:30:21.491Z,5.10
2022-12-04T09:32:48.031Z,4.70
2022-12-04T09:35:14.600Z,4.80
2022-12-04T09:37:41.240Z,4.80
2022-12-04T09:40:15.717Z,4.90
2022-12-04T09:43:05.717Z,4.70
2022-12-04T09:45:46.924Z,4.70
2022-12-04T09:48:16.170Z,5.00
2022-12-04T09:50:44.562Z,4.80
2022-12-04T09:53:16.657Z,4.90
2022-12-04T09:55:56.044Z,5.00
2022-12-04T09:58:35.913Z,5.30
2022-12-04T10:01:04.413Z,5.20
2022-12-04T10:03:31.707Z,5.00
2022-12-04T10:06:01.128Z,4.90
2022-12-04T10:08:30.560Z,4.90
2022-12-04T10:11:04.259Z,5.10
2022-12-04T10:14:06.312Z,4.90
2022-12-04T10:17:03.027Z,5.00
2022-12-04T10:19:53.757Z,5.30
2022-12-04T10:22:46.601Z,5.20
2022-12-04T10:25:20.651Z,5.20
2022-12-04T10:28:03.387Z,5.30
2022-12-04T10:30:33.892Z,5.40
2022-12-04T10:33:14.016Z,5.40
2022-12-04T10:35:43.914Z,5.50
2022-12-04T10:38:30.961Z,5.40
2022-12-04T10:41:11.571Z,5.30
2022-12-04T10:43:44.303Z,5.20
2022-12-04T10:46:30.377Z,5.00
2022-12-04T10:49:06.632Z,5.60
2022-12-04T10:51:40.293Z,5.50
2022-12-04T10:54:21.859Z,5.10
2022-12-04T10:56:59.082Z,5.20
2022-12-04T10:59:27.229Z,5.20
2022-12-04T11:02:06.722Z,5.40
2022-12-04T11:04:34.998Z,5.50
2022-12-04T11:07:24.292Z,5.40
2022-12-04T11:10:31.826Z,5.20
2022-12-04T11:13:01.877Z,5.30
2022-12-04T11:15:28.800Z,5.50
2022-12-04T11:17:55.427Z,5.50
2022-12-04T11:20:25.141Z,5.60
2022-12-04T11:22:59.286Z,5.60
2022-12-04T11:25:30.936Z,5.30
2022-12-04T11:28:01.357Z,5.30
2022-12-04T11:30:36.410Z,5.40
2022-12-04T11:33:07.655Z,5.40
2022-12-04T11:35:34.485Z,5.40
2022-12-04T11:38:14.835Z,5.50
2022-12-04T11:40:53.730Z,5.70
2022-12-04T11:43:21.544Z,5.40
2022-12-04T11:45:55.557Z,5.40
2022-12-04T11:48:22.517Z,5.30
2022-12-04T11:51:16.356Z,5.10
2022-12-04T11:53:43.443Z,5.00
2022-12-04T11:56:34.253Z,5.00
2022-12-04T11:59:39.141Z,5.20
2022-12-04T12:02:46.493Z,5.30
2022-12-04T12:05:39.532Z,5.40
2022-12-04T12:08:42.974Z,5.30
2022-12-04T12:11:15.717Z,5.20
2022-12-04T12:14:06.479Z,5.50
2022-12-04T12:16:58.043Z,5.40
2022-12-04T12:20:10.699Z,5.10
2022-12-04T12:22:55.435Z,4.90
2022-12-04T12:25:48.802Z,5.00
2022-12-04T12:28:21.270Z,4.90
2022-12-04T12:31:11.909Z,4.80
2022-12-04T12:34:01.634Z,4.90
2022-12-04T12:36:36.113Z,4.90
2022-12-04T12:39:14.068Z,5.00
2022-12-04T12:41:50.382Z,5.00
2022-12-04T12:44:22.446Z,4.80
2022-12-04T12:47:00.780Z,4.80
2022-12-04T12:49:34.912Z,4.90
2022-12-04T12:52:12.971Z,5.20
2022-12-04T12:54:39.513Z,5.30
2022-12-04T12:57:18.182Z,5.20
2022-12-04T13:00:13.040Z,5.10
2022-12-04T13:02:55.545Z,5.30
2022-12-04T13:05:29.362Z,5.10
2022-12-04T13:08:16.890Z,5.10
2022-12-04T13:10:56.272Z,4.90
2022-12-04T13:13:31.568Z,4.90
2022-12-04T13:16:24.448Z,5.00
2022-12-04T13:18:55.272Z,5.00
2022-12-04T13:21:45.868Z,5.20
2022-12-04T13:24:18.440Z,5.20
2022-12-04T13:27:06.877Z,5.30
2022-12-04T13:29:37.233Z,5.10
2022-12-04T13:32:10.001Z,5.20
2022-12-04T13:34:49.437Z,5.20
2022-12-04T13:37:49.772Z,5.10
2022-12-04T13:40:31.107Z,5.00
2022-12-04T13:43:23.735Z,5.00
2022-12-04T13:45:52.902Z,5.10
2022-12-04T13:48:31.937Z,5.10
2022-12-04T13:51:02.949Z,5.30
2022-12-04T13:53:37.142Z,5.10
2022-12-04T13:56:09.483Z,5.20
2022-12-04T13:58:37.570Z,5.10
2022-12-04T14:01:24.691Z,5.00
2022-12-04T14:03:57.443Z,5.00
2022-12-04T14:06:42.467Z,4.90
2022-12-04T14:09:28.060Z,5.00
2022-12-04T14:12:01.535Z,4.70
2022-12-04T14:14:34.211Z,4.80
2022-12-04T14:17:01.204Z,4.80
2022-12-04T14:19:36.850Z,4.70
2022-12-04T14:22:04.176Z,4.80
2022-12-04T14:24:37.104Z,4.80
2022-12-04T14:27:33.628Z,4.70
2022-12-04T14:30:01.475Z,4.80
2022-12-04T14:32:33.815Z,4.90
2022-12-04T14:35:01.720Z,4.70
2022-12-04T14:37:34.038Z,4.90
2022-12-04T14:40:01.596Z,4.70
2022-12-04T14:42:36.300Z,4.60
2022-12-04T14:45:18.593Z,4.80
2022-12-04T14:47:57.736Z,4.80
2022-12-04T14:50:46.596Z,4.60
2022-12-04T14:53:47.295Z,4.80
2022-12-04T14:56:13.819Z,4.50
2022-12-04T14:58:40.490Z,4.50
2022-12-04T15:01:29.515Z,4.50
2022-12-04T15:04:00.506Z,4.20
2022-12-04T15:06:29.763Z,4.30
2022-12-04T15:09:17.518Z,4.30
2022-12-04T15:12:09.603Z,4.50
2022-12-04T15:14:44.077Z,4.40
2022-12-04T15:17:12.089Z,4.40
2022-12-04T15:19:39.702Z,4.50
2022-12-04T15:22:20.999Z,4.50
2022-12-04T15:24:47.667Z,4.40
2022-12-04T15:27:16.646Z,4.40
2022-12-04T15:29:48.168Z,4.20
2022-12-04T15:32:17.522Z,4.20
2022-12-04T15:34:48.879Z,4.30
2022-12-04T15:37:23.908Z,4.30
2022-12-04T15:39:52.681Z,4.10
2022-12-04T15:42:30.150Z,4.10
2022-12-04T15:45:08.695Z,4.20
2022-12-04T15:47:41.150Z,4.20
2022-12-04T15:50:13.567Z,4.20
2022-12-04T15:52:57.313Z,4.10
2022-12-04T15:55:25.624Z,4.00
2022-12-04T15:58:19.989Z,4.10
2022-12-04T16:00:46.693Z,4.00
2022-12-04T16:03:31.043Z,4.00
2022-12-04T16:06:19.713Z,4.10
2022-12-04T16:08:58.048Z,4.10
2022-12-04T16:11:36.992Z,4.10
2022-12-04T16:14:12.301Z,4.10
2022-12-04T16:16:42.199Z,4.20
2022-12-04T16:19:18.251Z,4.10
2022-12-04T16:21:45.172Z,4.20
2022-12-04T16:24:13.902Z,4.20
2022-12-04T16:26:41.477Z,4.10
2022-12-04T16:29:08.250Z,4.00
2022-12-04T16:31:35.303Z,3.90
2022-12-04T16:34:01.947Z,4.00
2022-12-04T16:36:28.520Z,4.00
2022-12-04T16:38:55.306Z,4.00
2022-12-04T16:41:21.926Z,4.20
2022-12-04T16:43:55.853Z,4.30
2022-12-04T16:46:24.869Z,4.50
2022-12-04T16:48:52.066Z,4.50
2022-12-04T16:51:21.869Z,4.60
2022-12-04T16:53:49.162Z,4.70
2022-12-04T16:56:15.732Z,5.00
2022-12-04T16:58:43.574Z,5.00
2022-12-04T17:01:29.553Z,5.10
2022-12-04T17:03:56.174Z,4.90
2022-12-04T17:06:22.834Z,4.80
2022-12-04T17:08:49.467Z,4.70
2022-12-04T17:11:17.091Z,4.80
2022-12-04T17:13:44.489Z,4.80
2022-12-04T17:16:14.844Z,4.80
2022-12-04T17:18:45.182Z,4.70
2022-12-04T17:21:13.347Z,4.80
2022-12-04T17:23:40.841Z,4.90
2022-12-04T17:26:09.905Z,4.80
2022-12-04T17:28:37.350Z,4.70
2022-12-04T17:31:06.035Z,4.70
2022-12-04T17:33:33.139Z,4.70
2022-12-04T17:36:00.236Z,4.70
2022-12-04T17:38:27.721Z,4.70
2022-12-04T17:40:59.866Z,4.60
2022-12-04T17:43:28.766Z,4.80
2022-12-04T17:45:55.848Z,4.90
2022-12-04T17:48:22.557Z,4.90
2022-12-04T17:50:49.148Z,4.80
2022-12-04T17:53:15.830Z,5.00
2022-12-04T17:55:42.484Z,5.30
2022-12-04T17:58:09.044Z,5.40
2022-12-04T18:00:36.416Z,5.30
2022-12-04T18:03:03.068Z,5.30
2022-12-04T18:05:30.524Z,5.30
2022-12-04T18:07:57.142Z,5.50
2022-12-04T18:10:24.306Z,5.60
2022-12-04T18:12:50.861Z,5.60
2022-12-04T18:15:17.509Z,5.40
2022-12-04T18:17:44.162Z,5.40
2022-12-04T18:20:11.257Z,5.40
2022-12-04T18:22:37.996Z,5.50
2022-12-04T18:25:04.859Z,5.60
2022-12-04T18:27:31.447Z,5.70
2022-12-04T18:29:58.192Z,5.50
2022-12-04T18:32:24.960Z,5.60
2022-12-04T18:34:51.516Z,5.30
2022-12-04T18:37:18.290Z,4.70
2022-12-04T18:39:44.850Z,5.10
2022-12-04T18:42:11.400Z,5.00
2022-12-04T18:44:38.034Z,5.10
2022-12-04T18:47:04.730Z,5.00
2022-12-04T18:49:31.510Z,5.10
2022-12-04T18:51:59.284Z,5.20
2022-12-04T18:54:25.863Z,5.10
2022-12-04T18:56:52.606Z,5.10
2022-12-04T18:59:22.157Z,5.20
2022-12-04T19:01:52.375Z,5.30
2022-12-04T19:04:20.438Z,5.20
2022-12-04T19:06:48.978Z,5.10
2022-12-04T19:09:19.141Z,5.10
2022-12-04T19:11:46.270Z,5.10
2022-12-04T19:14:22.258Z,5.10
2022-12-04T19:16:49.899Z,5.20
2022-12-04T19:19:16.793Z,5.00
2022-12-04T19:21:43.514Z,5.20
2022-12-04T19:24:10.850Z,5.20
2022-12-04T19:26:37.780Z,5.20
2022-12-04T19:29:06.140Z,5.40
2022-12-04T19:31:35.280Z,5.00
2022-12-04T19:34:02.736Z,5.00
2022-12-04T19:36:30.773Z,5.10
2022-12-04T19:38:58.116Z,5.30
2022-12-04T19:41:26.992Z,5.30
2022-12-04T19:43:56.687Z,5.10
2022-12-04T19:46:28.772Z,4.60
2022-12-04T19:48:58.471Z,4.60
2022-12-04T19:51:25.610Z,4.60
2022-12-04T19:53:54.333Z,5.00
2022-12-04T19:56:24.377Z,5.20
2022-12-04T19:58:56.299Z,5.30
2022-12-04T20:01:28.548Z,5.30
2022-12-04T20:03:56.400Z,5.20
2022-12-04T20:06:25.934Z,5.00
2022-12-04T20:08:57.889Z,5.00
2022-12-04T20:11:25.553Z,4.90
2022-12-04T20:13:55.467Z,5.00
2022-12-04T20:16:24.719Z,5.00
2022-12-04T20:18:51.751Z,5.20
2022-12-04T20:21:19.274Z,5.00
2022-12-04T20:23:50.892Z,4.90
2022-12-04T20:26:20.050Z,5.20
2022-12-04T20:28:46.880Z,5.30
2022-12-04T20:31:19.231Z,4.50
2022-12-04T20:33:47.749Z,5.00
2022-12-04T20:36:15.665Z,5.10
2022-12-04T20:38:42.526Z,5.10
2022-12-04T20:41:13.259Z,5.30
2022-12-04T20:43:39.827Z,5.30
2022-12-04T20:46:31.555Z,5.30
2022-12-04T20:49:00.718Z,5.20
2022-12-04T20:51:32.965Z,5.30
2022-12-04T20:54:00.318Z,5.20
2022-12-04T20:56:32.854Z,5.10
2022-12-04T20:59:01.965Z,4.90
2022-12-04T21:01:29.510Z,4.90
2022-12-04T21:03:58.515Z,5.00
2022-12-04T21:06:34.541Z,5.00
2022-12-04T21:09:07.124Z,5.10
2022-12-04T21:11:39.777Z,5.20
2022-12-04T21:14:29.559Z,4.90
2022-12-04T21:16:56.213Z,4.70
2022-12-04T21:19:23.571Z,4.50
2022-12-04T21:21:50.571Z,4.60
2022-12-04T21:24:19.685Z,4.60
2022-12-04T21:26:47.054Z,4.70
2022-12-04T21:29:14.632Z,4.70
2022-12-04T21:31:41.921Z,4.70
2022-12-04T21:34:11.704Z,4.70
2022-12-04T21:36:38.384Z,5.00
2022-12-04T21:39:05.045Z,5.00
2022-12-04T21:41:50.084Z,4.70
2022-12-04T21:44:18.888Z,4.80
2022-12-04T21:46:46.413Z,4.80
2022-12-04T21:49:14.250Z,4.70
2022-12-04T21:51:56.660Z,4.60
2022-12-04T21:54:24.194Z,4.40
2022-12-04T21:56:50.825Z,4.60
2022-12-04T21:59:17.440Z,4.80
2022-12-04T22:01:44.535Z,4.40
2022-12-04T22:04:11.127Z,4.60
2022-12-04T22:06:37.854Z,4.70
2022-12-04T22:09:08.434Z,5.00
2022-12-04T22:11:35.287Z,4.60
2022-12-04T22:14:02.307Z,4.60
2022-12-04T22:16:30.897Z,4.90
2022-12-04T22:18:59.216Z,4.90
2022-12-04T22:21:27.184Z,5.00
2022-12-04T22:24:01.348Z,5.20
2022-12-04T22:26:29.405Z,5.00
2022-12-04T22:28:56.517Z,4.60
2022-12-04T22:31:25.784Z,4.70
2022-12-04T22:33:55.628Z,4.90
2022-12-04T22:36:24.870Z,4.80
2022-12-04T22:39:08.768Z,4.70
2022-12-04T22:41:37.192Z,4.80
2022-12-04T22:44:04.167Z,4.90
2022-12-04T22:46:30.920Z,5.00
2022-12-04T22:48:59.152Z,5.10
2022-12-04T22:51:26.096Z,5.10
2022-12-04T22:53:55.795Z,5.10
2022-12-04T22:56:29.186Z,5.10
2022-12-04T22:58:57.731Z,5.10
2022-12-04T23:01:26.842Z,4.90
2022-12-04T23:03:54.163Z,5.10
2022-12-04T23:06:22.974Z,5.20
2022-12-04T23:08:57.842Z,5.30
2022-12-04T23:11:25.389Z,5.20
2022-12-04T23:13:54.031Z,5.10
2022-12-04T23:16:22.543Z,5.20
2022-12-04T23:18:49.714Z,5.10
2022-12-04T23:21:18.143Z,5.10
2022-12-04T23:23:46.191Z,5.10
2022-12-04T23:26:18.758Z,5.20
2022-12-04T23:28:45.735Z,5.00
2022-12-04T23:31:12.728Z,5.00
2022-12-04T23:33:40.170Z,5.30
2022-12-04T23:36:08.383Z,5.30
2022-12-04T23:38:36.956Z,5.30
2022-12-04T23:41:10.162Z,5.20
2022-12-04T23:43:36.995Z,5.10
2022-12-04T23:46:10.415Z,5.10
2022-12-04T23:48:38.979Z,5.20
2022-12-04T23:51:06.130Z,5.30
2022-12-04T23:53:32.686Z,5.20
2022-12-04T23:56:15.063Z,5.10
2022-12-04T23:58:43.127Z,5.30
